Time;durP1;ratioP1;P1;durP2;ratioP2;P2;SDS_P1;SDS_P2;PMS_P1;PMS_P2;Temp;Humidity;BMP_temperature;BMP_pressure;BME280_temperature;BME280_humidity;BME280_pressure;Samples;Min_cycle;Max_cycle;Signal;HPM_P1;HPM_P2
2023/05/06 00:00:16;;;;;;;4.47;3.53;;;13.10;99.90;;;;;;5028253;28;20034;-52
2023/05/06 00:02:41;;;;;;;5.18;3.80;;;13.20;99.90;;;;;;4996049;28;20127;-52
2023/05/06 00:05:07;;;;;;;4.25;3.33;;;13.30;99.90;;;;;;5033813;28;20084;-52
2023/05/06 00:07:33;;;;;;;5.07;3.72;;;13.30;99.90;;;;;;5026518;28;20033;-52
2023/05/06 00:09:59;;;;;;;5.10;3.92;;;13.30;99.90;;;;;;5032345;28;20038;-52
2023/05/06 00:12:25;;;;;;;3.95;3.28;;;13.40;99.90;;;;;;5028487;28;20030;-51
2023/05/06 00:14:50;;;;;;;5.53;4.03;;;13.30;99.90;;;;;;5033749;28;20029;-51
2023/05/06 00:17:16;;;;;;;5.40;4.28;;;13.40;99.90;;;;;;5018586;28;20045;-52
2023/05/06 00:19:43;;;;;;;4.05;3.25;;;13.30;99.90;;;;;;5033163;28;20071;-52
2023/05/06 00:22:09;;;;;;;4.82;3.65;;;13.30;99.90;;;;;;5018071;28;20045;-52
2023/05/06 00:24:34;;;;;;;4.20;3.67;;;13.40;99.90;;;;;;5032317;28;20044;-52
2023/05/06 00:27:00;;;;;;;4.30;3.22;;;13.50;99.90;;;;;;5026763;28;20045;-51
2023/05/06 00:29:26;;;;;;;5.88;3.85;;;13.40;99.90;;;;;;5033400;28;20038;-52
2023/05/06 00:31:52;;;;;;;6.97;4.32;;;13.40;99.90;;;;;;5029228;28;20103;-52
2023/05/06 00:34:17;;;;;;;4.85;3.40;;;13.50;99.90;;;;;;5023878;28;20042;-52
2023/05/06 00:36:43;;;;;;;4.13;3.70;;;13.60;99.90;;;;;;5023963;28;20041;-52
2023/05/06 00:39:09;;;;;;;3.88;3.08;;;13.70;99.90;;;;;;5026367;28;20087;-52
2023/05/06 00:41:35;;;;;;;4.18;3.58;;;13.60;99.90;;;;;;4999533;28;20044;-52
2023/05/06 00:44:01;;;;;;;3.80;3.17;;;13.60;99.90;;;;;;5029658;28;20120;-52
2023/05/06 00:46:26;;;;;;;4.40;3.92;;;13.60;99.90;;;;;;5023339;28;20493;-52
2023/05/06 00:48:53;;;;;;;4.85;3.88;;;13.60;99.90;;;;;;5021478;28;20037;-52
2023/05/06 00:51:19;;;;;;;4.93;3.22;;;13.50;99.90;;;;;;5028133;28;20148;-52
2023/05/06 00:53:47;;;;;;;6.55;4.07;;;13.80;99.90;;;;;;5029634;28;20510;-53
2023/05/06 00:56:14;;;;;;;5.43;3.90;;;14.00;99.90;;;;;;5030354;28;20037;-52
2023/05/06 00:58:40;;;;;;;5.93;3.70;;;14.10;99.90;;;;;;4998361;28;20037;-52
2023/05/06 01:01:07;;;;;;;5.82;3.95;;;;;;;;;;5030768;28;20035;-52
2023/05/06 01:03:32;;;;;;;7.90;3.60;;;14.40;99.90;;;;;;5020109;28;20054;-52
2023/05/06 01:06:43;;;;;;;4.70;4.20;;;14.40;99.90;;;;;;5026497;28;20025;-52
2023/05/06 01:09:30;;;;;;;4.28;3.50;;;14.50;99.90;;;;;;4971344;28;20081;-52
2023/05/06 01:12:05;;;;;;;5.57;4.15;;;14.60;99.90;;;;;;4955332;28;20062;-52
2023/05/06 01:14:37;;;;;;;4.00;3.33;;;;;;;;;;4968800;28;20490;-52
2023/05/06 01:17:05;;;;;;;5.82;4.18;;;14.70;99.90;;;;;;4967962;28;20053;-52
2023/05/06 01:19:40;;;;;;;5.93;4.00;;;;;;;;;;4971641;28;20113;-52
2023/05/06 01:22:08;;;;;;;4.35;3.50;;;14.70;99.90;;;;;;4971307;28;20395;-52
2023/05/06 01:24:41;;;;;;;3.95;3.40;;;14.80;99.90;;;;;;4972216;28;20206;-52
2023/05/06 01:27:08;;;;;;;5.88;4.53;;;14.80;99.90;;;;;;4964199;28;20045;-52
2023/05/06 01:29:37;;;;;;;4.43;3.35;;;14.90;99.90;;;;;;4971104;28;20066;-52
2023/05/06 01:32:43;;;;;;;6.20;3.42;;;14.80;99.90;;;;;;4965755;28;20034;-52
2023/05/06 01:35:28;;;;;;;5.18;3.75;;;14.80;99.90;;;;;;4910190;29;20048;-52
2023/05/06 01:38:20;;;;;;;5.25;3.50;;;14.80;99.90;;;;;;4898412;29;20044;-51
2023/05/06 01:40:48;;;;;;;;;;;14.80;99.90;;;;;;4914091;29;20090;-52
2023/05/06 01:43:17;;;;;;;5.03;3.35;;;14.70;99.90;;;;;;4913938;29;19907;-52
2023/05/06 01:45:48;;;;;;;5.47;3.88;;;14.70;99.90;;;;;;4936039;29;20525;-52
2023/05/06 01:48:14;;;;;;;4.15;3.35;;;14.70;99.90;;;;;;4951869;29;20383;-52
2023/05/06 01:50:40;;;;;;;3.72;3.13;;;14.60;99.90;;;;;;4935772;29;20059;-52
2023/05/06 01:53:06;;;;;;;4.18;3.25;;;14.60;99.90;;;;;;4934952;29;20027;-53
2023/05/06 01:55:32;;;;;;;4.15;3.65;;;14.60;99.90;;;;;;4933153;29;20046;-52
2023/05/06 01:57:58;;;;;;;4.95;3.42;;;14.60;99.90;;;;;;4935739;29;20094;-49
2023/05/06 02:00:24;;;;;;;4.43;3.15;;;14.60;99.90;;;;;;4951585;29;20035;-50
2023/05/06 02:02:50;;;;;;;4.30;3.30;;;14.40;99.90;;;;;;4951464;29;20203;-50
2023/05/06 02:05:16;;;;;;;5.10;3.55;;;14.20;99.90;;;;;;4951336;29;20118;-50
2023/05/06 02:07:41;;;;;;;4.53;3.05;;;13.80;99.90;;;;;;4904125;29;20043;-50
2023/05/06 02:10:07;;;;;;;4.38;3.70;;;13.50;99.90;;;;;;4920378;29;20422;-50
2023/05/06 02:12:33;;;;;;;4.22;3.67;;;13.70;99.90;;;;;;5010636;28;20034;-50
2023/05/06 02:14:59;;;;;;;6.40;3.70;;;13.90;99.90;;;;;;5026174;28;20068;-50
2023/05/06 02:17:25;;;;;;;3.95;3.20;;;13.90;99.90;;;;;;5031595;28;20053;-50
2023/05/06 02:19:50;;;;;;;4.03;3.00;;;13.30;99.90;;;;;;5029932;28;20500;-50
2023/05/06 02:22:16;;;;;;;5.00;3.70;;;13.20;99.90;;;;;;5031447;28;20029;-50
2023/05/06 02:24:42;;;;;;;4.63;3.47;;;13.10;99.90;;;;;;5041772;28;20041;-51
2023/05/06 02:27:07;;;;;;;5.13;2.95;;;12.90;99.90;;;;;;5023750;28;20088;-51
2023/05/06 02:29:33;;;;;;;4.63;3.22;;;13.10;99.90;;;;;;5035057;28;20048;-51
2023/05/06 02:31:59;;;;;;;4.45;2.78;;;13.00;99.90;;;;;;5030921;28;20059;-51
2023/05/06 02:34:25;;;;;;;4.18;3.00;;;13.20;99.90;;;;;;5035216;28;20029;-51
2023/05/06 02:36:50;;;;;;;4.93;3.30;;;13.20;99.90;;;;;;5001275;28;20034;-50
2023/05/06 02:39:16;;;;;;;3.58;2.95;;;13.10;99.90;;;;;;5035212;28;20065;-51
2023/05/06 02:41:42;;;;;;;5.22;3.58;;;13.10;99.90;;;;;;5034763;28;20516;-51
2023/05/06 02:44:07;;;;;;;4.75;3.08;;;13.00;99.90;;;;;;5036029;28;20076;-51
2023/05/06 02:46:34;;;;;;;4.10;3.20;;;12.80;99.90;;;;;;5019321;28;20041;-51
2023/05/06 02:49:00;;;;;;;4.15;3.08;;;12.80;99.90;;;;;;5016486;28;20060;-51
2023/05/06 02:51:25;;;;;;;4.28;3.20;;;13.00;99.90;;;;;;5033537;28;20026;-51
2023/05/06 02:53:51;;;;;;;4.15;3.35;;;13.20;99.90;;;;;;5033982;28;20689;-50
2023/05/06 02:56:17;;;;;;;3.45;2.90;;;13.40;99.90;;;;;;5035427;28;20380;-50
2023/05/06 02:58:42;;;;;;;5.68;3.58;;;13.40;99.90;;;;;;5033774;28;20916;-51
2023/05/06 03:01:08;;;;;;;4.25;3.80;;;13.40;99.90;;;;;;5030775;28;20033;-51
2023/05/06 03:03:34;;;;;;;4.15;3.25;;;13.60;99.90;;;;;;5034910;28;20117;-51
2023/05/06 03:05:59;;;;;;;4.65;3.20;;;13.70;99.90;;;;;;5033315;28;20385;-51
2023/05/06 03:08:25;;;;;;;4.15;3.75;;;13.30;99.90;;;;;;5021888;28;20042;-51
2023/05/06 03:10:51;;;;;;;3.88;3.35;;;13.40;99.90;;;;;;4964751;28;20049;-51
2023/05/06 03:13:17;;;;;;;3.70;2.63;;;13.50;99.90;;;;;;5017142;28;20432;-50
2023/05/06 03:15:42;;;;;;;4.47;3.22;;;13.50;99.90;;;;;;5023460;28;20428;-51
2023/05/06 03:18:08;;;;;;;4.55;3.30;;;13.50;99.90;;;;;;4974350;28;20128;-51
2023/05/06 03:20:34;;;;;;;4.95;3.17;;;13.50;99.90;;;;;;5018707;28;20056;-51
2023/05/06 03:23:00;;;;;;;3.70;2.90;;;13.50;99.90;;;;;;5001612;28;20041;-51
2023/05/06 03:25:26;;;;;;;4.47;3.03;;;13.30;99.90;;;;;;4981446;28;20085;-51
2023/05/06 03:27:51;;;;;;;4.25;3.45;;;13.20;99.90;;;;;;5016417;28;20362;-51
2023/05/06 03:30:17;;;;;;;4.75;3.17;;;13.00;99.90;;;;;;5019913;28;20037;-51
2023/05/06 03:32:44;;;;;;;3.85;3.08;;;13.00;99.90;;;;;;5015563;28;20420;-51
2023/05/06 03:35:10;;;;;;;5.00;3.10;;;12.80;99.90;;;;;;5016826;28;20505;-50
2023/05/06 03:37:36;;;;;;;4.82;3.35;;;;;;;;;;5018404;28;20037;-50
2023/05/06 03:40:03;;;;;;;3.95;3.03;;;;;;;;;;5022046;28;20061;-50
2023/05/06 03:42:29;;;;;;;4.60;3.65;;;12.00;99.90;;;;;;5026634;28;20119;-50
2023/05/06 03:44:55;;;;;;;5.40;3.42;;;11.80;99.90;;;;;;5033895;28;20044;-51
2023/05/06 03:47:21;;;;;;;4.65;3.22;;;11.70;99.90;;;;;;5034081;28;20025;-51
2023/05/06 03:49:47;;;;;;;5.18;3.30;;;11.60;99.90;;;;;;5033804;28;20044;-51
2023/05/06 03:52:12;;;;;;;4.40;3.30;;;12.00;99.90;;;;;;5034524;28;20041;-51
2023/05/06 03:54:38;;;;;;;4.03;3.17;;;12.00;99.90;;;;;;5034549;28;20063;-51
2023/05/06 03:57:04;;;;;;;4.45;3.20;;;12.10;99.90;;;;;;5034244;28;20064;-51
2023/05/06 03:59:29;;;;;;;3.83;3.05;;;12.10;99.90;;;;;;5035833;28;20044;-51
2023/05/06 04:01:55;;;;;;;4.40;3.15;;;12.00;99.90;;;;;;5031151;28;20021;-51
2023/05/06 04:04:21;;;;;;;3.67;2.88;;;11.60;99.90;;;;;;5050831;28;20030;-51
2023/05/06 04:06:47;;;;;;;3.95;2.95;;;11.40;99.90;;;;;;5033575;28;20057;-52
2023/05/06 04:09:13;;;;;;;3.45;3.15;;;;;;;;;;5036231;28;20057;-52
2023/05/06 04:11:39;;;;;;;5.88;3.20;;;;;;;;;;5040132;28;20073;-52
2023/05/06 04:14:05;;;;;;;3.22;2.80;;;;;;;;;;5033400;28;20068;-52
2023/05/06 04:16:31;;;;;;;4.03;2.90;;;11.50;99.90;;;;;;5043565;28;20073;-52
2023/05/06 04:18:57;;;;;;;4.07;3.20;;;;;;;;;;5031935;28;20060;-51
2023/05/06 04:21:22;;;;;;;4.13;3.47;;;11.90;99.90;;;;;;5033215;28;20420;-52
2023/05/06 04:23:48;;;;;;;4.20;3.25;;;12.10;99.90;;;;;;5033223;28;20034;-54
2023/05/06 04:26:14;;;;;;;6.05;3.97;;;;;;;;;;5033255;28;20029;-52
2023/05/06 04:28:40;;;;;;;4.45;3.42;;;13.00;99.90;;;;;;5032829;28;20473;-52
2023/05/06 04:31:07;;;;;;;5.70;3.97;;;13.00;99.90;;;;;;5030834;28;20071;-53
2023/05/06 04:33:33;;;;;;;6.63;3.90;;;13.20;99.90;;;;;;5027321;28;20030;-52
2023/05/06 04:35:59;;;;;;;4.30;3.80;;;13.40;99.90;;;;;;5031897;28;20057;-52
2023/05/06 04:38:29;;;;;;;3.67;3.10;;;13.60;99.90;;;;;;5032756;28;20494;-52
2023/05/06 04:40:55;;;;;;;5.57;3.80;;;13.80;99.90;;;;;;5027887;28;20045;-51
2023/05/06 04:43:21;;;;;;;3.60;3.30;;;13.90;99.90;;;;;;5033049;28;20052;-51
2023/05/06 04:45:50;;;;;;;4.80;4.22;;;13.70;99.90;;;;;;5033066;28;20112;-52
2023/05/06 04:48:21;;;;;;;5.60;4.57;;;13.60;99.90;;;;;;5030628;28;20028;-52
2023/05/06 04:50:47;;;;;;;5.47;4.57;;;13.50;99.90;;;;;;5032056;28;20082;-52
2023/05/06 04:53:14;;;;;;;4.72;3.22;;;13.50;99.90;;;;;;5048041;28;20127;-51
2023/05/06 04:55:40;;;;;;;5.05;4.38;;;;;;;;;;5031658;28;20064;-52
2023/05/06 04:58:06;;;;;;;7.30;4.20;;;14.10;99.90;;;;;;5033580;28;20033;-53
2023/05/06 05:00:33;;;;;;;6.38;3.85;;;14.20;99.90;;;;;;5051140;28;20362;-52
2023/05/06 05:03:00;;;;;;;5.00;3.80;;;;;;;;;;5032144;28;20025;-52
2023/05/06 05:05:27;;;;;;;7.65;4.60;;;;;;;;;;5032471;28;20044;-51
2023/05/06 05:07:53;;;;;;;6.05;4.88;;;;;;;;;;5032220;28;20041;-51
2023/05/06 05:10:19;;;;;;;6.30;5.15;;;;;;;;;;5038958;28;20060;-49
2023/05/06 05:12:45;;;;;;;7.43;5.22;;;;;;;;;;5032351;28;20037;-50
2023/05/06 05:15:11;;;;;;;5.95;5.05;;;15.30;99.90;;;;;;5032872;28;20029;-51
2023/05/06 05:17:37;;;;;;;5.85;4.88;;;15.40;99.90;;;;;;5032348;28;20029;-50
2023/05/06 05:20:04;;;;;;;7.85;5.32;;;15.40;99.90;;;;;;5033197;28;20032;-50
2023/05/06 05:22:30;;;;;;;5.53;4.53;;;15.70;99.90;;;;;;5030209;28;20034;-50
2023/05/06 05:24:56;;;;;;;5.93;4.50;;;15.90;99.90;;;;;;5031809;28;21300;-50
2023/05/06 05:27:22;;;;;;;5.82;4.40;;;16.00;99.90;;;;;;5032661;28;20392;-50
2023/05/06 05:29:48;;;;;;;6.18;4.43;;;16.10;99.90;;;;;;5032579;28;20034;-50
2023/05/06 05:32:15;;;;;;;5.68;4.55;;;16.20;99.90;;;;;;5032307;28;20057;-50
2023/05/06 05:34:40;;;;;;;7.40;5.00;;;16.40;99.90;;;;;;5031015;28;20067;-50
2023/05/06 05:37:07;;;;;;;5.97;4.45;;;;;;;;;;5029841;28;20034;-50
2023/05/06 05:39:33;;;;;;;7.55;5.70;;;;;;;;;;5055176;28;20045;-50
2023/05/06 05:41:58;;;;;;;7.47;5.68;;;16.70;99.90;;;;;;5026991;28;20044;-50
2023/05/06 05:44:24;;;;;;;7.90;5.68;;;16.90;99.90;;;;;;5025280;28;20068;-50
2023/05/06 05:46:50;;;;;;;6.72;4.93;;;;;;;;;;5031706;28;20029;-51
2023/05/06 05:49:16;;;;;;;7.57;5.18;;;;;;;;;;5031945;28;20107;-50
2023/05/06 05:51:42;;;;;;;8.07;5.13;;;;;;;;;;5032546;28;20037;-51
2023/05/06 05:54:08;;;;;;;9.55;4.93;;;17.30;99.90;;;;;;5017599;28;20045;-50
2023/05/06 05:56:34;;;;;;;6.20;4.75;;;17.50;99.90;;;;;;5032158;28;20116;-51
2023/05/06 05:59:00;;;;;;;6.70;5.07;;;17.50;99.90;;;;;;5031813;28;20385;-50
2023/05/06 06:01:26;;;;;;;6.05;4.85;;;17.70;99.90;;;;;;5029248;28;20041;-50
2023/05/06 06:03:53;;;;;;;6.70;5.30;;;17.80;99.90;;;;;;5035992;28;20033;-50
2023/05/06 06:06:19;;;;;;;7.10;5.40;;;;;;;;;;5003236;28;20379;-51
2023/05/06 06:08:44;;;;;;;6.75;5.13;;;18.00;99.90;;;;;;5035064;28;20164;-51
2023/05/06 06:11:10;;;;;;;6.80;5.00;;;18.10;99.90;;;;;;5035335;28;20165;-51
2023/05/06 06:13:36;;;;;;;5.78;4.93;;;18.10;99.90;;;;;;5035761;28;20445;-50
2023/05/06 06:16:03;;;;;;;6.20;4.60;;;18.30;99.90;;;;;;5036364;28;20041;-50
2023/05/06 06:18:28;;;;;;;6.47;4.63;;;18.20;99.90;;;;;;5035765;28;20025;-51
2023/05/06 06:20:54;;;;;;;6.47;4.88;;;18.40;99.90;;;;;;5035006;28;20457;-51
2023/05/06 06:23:20;;;;;;;5.05;3.85;;;18.50;99.90;;;;;;5033322;28;20083;-50
2023/05/06 06:25:46;;;;;;;4.82;4.05;;;;;;;;;;5035412;28;20029;-51
2023/05/06 06:28:12;;;;;;;4.40;3.67;;;18.70;99.90;;;;;;5032154;28;20044;-51
2023/05/06 06:30:38;;;;;;;6.53;4.80;;;18.80;99.90;;;;;;5032912;28;21438;-51
2023/05/06 06:33:03;;;;;;;5.07;4.13;;;18.90;99.90;;;;;;5035314;28;20032;-50
2023/05/06 06:35:29;;;;;;;5.95;4.72;;;18.90;99.90;;;;;;5046999;28;20083;-50
2023/05/06 06:37:55;;;;;;;5.68;3.97;;;18.90;99.90;;;;;;5032423;28;20079;-51
2023/05/06 06:40:21;;;;;;;6.47;4.32;;;19.20;99.90;;;;;;5034973;28;20033;-50
2023/05/06 06:42:47;;;;;;;5.00;3.67;;;19.20;99.90;;;;;;5035410;28;20112;-51
2023/05/06 06:45:14;;;;;;;6.18;4.32;;;19.30;99.90;;;;;;5029903;28;20073;-53
2023/05/06 06:47:40;;;;;;;7.90;4.30;;;19.30;99.90;;;;;;5034856;28;20025;-51
2023/05/06 06:50:07;;;;;;;5.82;4.18;;;19.50;99.90;;;;;;5016131;28;20052;-47
2023/05/06 06:52:34;;;;;;;4.05;3.38;;;19.60;99.90;;;;;;5031863;28;20393;-45
2023/05/06 06:55:00;;;;;;;5.97;4.00;;;19.80;99.90;;;;;;5033783;28;20038;-51
2023/05/06 06:57:27;;;;;;;4.38;3.80;;;;;;;;;;5030533;28;20033;-50
2023/05/06 06:59:54;;;;;;;5.97;3.90;;;;;;;;;;5033449;28;20087;-50
2023/05/06 07:02:20;;;;;;;5.68;3.58;;;;;;;;;;5035642;28;20505;-50
2023/05/06 07:04:46;;;;;;;5.70;4.57;;;;;;;;;;5034646;28;20171;-49
2023/05/06 07:07:12;;;;;;;6.93;4.13;;;20.30;99.90;;;;;;5035291;28;20061;-49
2023/05/06 07:09:43;;;;;;;6.50;4.07;;;;;;;;;;5034265;28;20122;-50
2023/05/06 07:12:09;;;;;;;6.53;3.97;;;20.90;99.90;;;;;;5034451;28;20042;-49
2023/05/06 07:14:34;;;;;;;4.82;3.75;;;20.90;99.90;;;;;;5031561;28;20026;-50
2023/05/06 07:17:00;;;;;;;5.72;4.10;;;;;;;;;;5031503;28;20035;-53
2023/05/06 07:19:27;;;;;;;5.35;3.85;;;21.10;99.90;;;;;;5033763;28;20598;-54
2023/05/06 07:21:53;;;;;;;8.75;4.45;;;21.00;99.90;;;;;;4968704;28;20374;-48
2023/05/06 07:24:19;;;;;;;5.90;3.65;;;;;;;;;;5020754;28;20100;-53
2023/05/06 07:26:46;;;;;;;6.20;3.53;;;21.50;99.90;;;;;;5034132;28;20465;-49
2023/05/06 07:29:11;;;;;;;4.95;3.63;;;21.60;99.90;;;;;;5016279;28;20055;-54
2023/05/06 07:31:37;;;;;;;6.57;3.35;;;;;;;;;;5033962;28;20440;-53
2023/05/06 07:34:03;;;;;;;5.55;3.63;;;22.70;99.90;;;;;;5033667;28;20060;-53
2023/05/06 07:36:34;;;;;;;4.55;3.17;;;;;;;;;;5031889;28;20086;-53
2023/05/06 07:38:59;;;;;;;4.30;2.97;;;22.30;99.90;;;;;;5025173;28;20480;-54
2023/05/06 07:41:26;;;;;;;4.38;3.28;;;;;;;;;;5033938;28;20121;-53
2023/05/06 07:43:51;;;;;;;6.32;3.85;;;22.60;99.90;;;;;;5027288;28;20040;-53
2023/05/06 07:46:17;;;;;;;4.32;3.15;;;22.80;99.90;;;;;;5032747;28;20115;-53
2023/05/06 07:48:43;;;;;;;4.90;3.58;;;22.70;99.90;;;;;;5033757;28;20029;-53
2023/05/06 07:51:08;;;;;;;4.55;3.47;;;22.80;99.90;;;;;;5053007;28;20592;-53
2023/05/06 07:53:36;;;;;;;4.30;3.00;;;22.90;99.90;;;;;;5034401;28;20079;-53
2023/05/06 07:56:02;;;;;;;3.28;2.70;;;22.70;99.90;;;;;;5033274;28;20477;-54
2023/05/06 07:58:30;;;;;;;5.45;3.22;;;;;;;;;;5033713;28;20029;-53
2023/05/06 08:00:56;;;;;;;3.60;2.60;;;;;;;;;;5033581;28;20022;-54
2023/05/06 08:03:22;;;;;;;4.47;2.80;;;;;;;;;;5034011;28;20056;-54
2023/05/06 08:05:50;;;;;;;2.88;2.25;;;23.40;99.90;;;;;;5033742;28;20104;-54
2023/05/06 08:08:16;;;;;;;4.05;2.40;;;23.10;99.90;;;;;;5033435;28;20041;-54
2023/05/06 08:10:43;;;;;;;4.30;3.20;;;23.20;99.90;;;;;;5033679;28;20040;-53
2023/05/06 08:13:08;;;;;;;3.30;2.30;;;23.20;99.90;;;;;;5033160;28;20026;-54
2023/05/06 08:15:34;;;;;;;3.47;2.47;;;23.30;99.90;;;;;;5043631;28;20042;-53
2023/05/06 08:18:00;;;;;;;3.63;2.20;;;;;;;;;;5032533;28;20120;-53
2023/05/06 08:20:26;;;;;;;2.95;2.33;;;23.70;99.90;;;;;;5039006;28;20037;-53
2023/05/06 08:22:52;;;;;;;3.33;2.50;;;;;;;;;;5000117;28;20095;-53
2023/05/06 08:25:18;;;;;;;3.50;2.08;;;23.60;99.90;;;;;;4974988;28;20087;-53
2023/05/06 08:27:44;;;;;;;3.40;2.35;;;23.40;99.90;;;;;;5038389;28;20485;-54
2023/05/06 08:30:11;;;;;;;3.83;2.30;;;;;;;;;;5038277;28;20103;-53
2023/05/06 08:32:38;;;;;;;2.80;2.15;;;24.10;99.90;;;;;;5001188;28;20041;-54
2023/05/06 08:35:07;;;;;;;2.38;2.05;;;24.50;99.90;;;;;;5035253;28;20069;-53
2023/05/06 08:37:32;;;;;;;2.38;1.98;;;24.70;99.90;;;;;;5007541;28;20037;-54
2023/05/06 08:39:59;;;;;;;2.55;1.83;;;;;;;;;;4982510;28;20053;-53
2023/05/06 08:42:25;;;;;;;3.38;2.35;;;;;;;;;;5005128;28;20045;-53
2023/05/06 08:44:52;;;;;;;3.22;2.15;;;;;;;;;;5031489;28;20068;-54
2023/05/06 08:47:21;;;;;;;1.67;1.42;;;25.50;99.90;;;;;;5034582;28;20044;-53
2023/05/06 08:49:47;;;;;;;2.42;1.80;;;25.50;99.90;;;;;;5038914;28;20038;-53
2023/05/06 08:52:13;;;;;;;1.90;1.38;;;25.90;99.90;;;;;;5030774;28;20037;-56
2023/05/06 08:54:40;;;;;;;1.67;1.55;;;;;;;;;;5028498;28;20060;-53
2023/05/06 08:57:10;;;;;;;2.42;1.50;;;;;;;;;;5030021;28;20018;-53
2023/05/06 08:59:36;;;;;;;1.90;1.33;;;25.10;99.90;;;;;;5031394;28;20033;-53
2023/05/06 09:02:05;;;;;;;1.98;1.65;;;25.10;99.60;;;;;;5031675;28;20473;-53
2023/05/06 09:04:31;;;;;;;2.00;1.52;;;;;;;;;;5032164;28;20038;-53
2023/05/06 09:06:58;;;;;;;1.90;1.50;;;25.90;99.90;;;;;;5031819;28;20032;-53
2023/05/06 09:09:24;;;;;;;2.35;1.70;;;26.00;99.90;;;;;;5031309;28;20040;-53
2023/05/06 09:11:56;;;;;;;1.35;1.13;;;26.40;99.80;;;;;;5027246;28;20036;-54
2023/05/06 09:14:21;;;;;;;;;;;25.80;99.00;;;;;;5032044;28;20473;-53
2023/05/06 09:16:49;;;;;;;2.33;1.65;;;26.00;98.80;;;;;;5029152;28;19912;-53
2023/05/06 09:19:16;;;;;;;1.80;1.38;;;26.20;98.10;;;;;;5030513;28;20044;-53
2023/05/06 09:21:43;;;;;;;2.33;1.65;;;26.30;96.90;;;;;;5027908;28;20047;-53
2023/05/06 09:24:10;;;;;;;1.83;1.45;;;;;;;;;;5023148;28;20034;-53
2023/05/06 09:26:37;;;;;;;2.95;2.08;;;;;;;;;;5025169;28;20041;-53
2023/05/06 09:29:04;;;;;;;1.45;1.35;;;26.40;99.90;;;;;;4990018;28;20065;-53
2023/05/06 09:31:30;;;;;;;1.73;1.40;;;26.20;99.90;;;;;;4989517;28;20030;-55
2023/05/06 09:33:57;;;;;;;1.63;1.40;;;;;;;;;;4989549;28;20042;-52
2023/05/06 09:36:24;;;;;;;1.35;1.25;;;;;;;;;;4989706;28;20046;-55
2023/05/06 09:38:52;;;;;;;1.85;1.55;;;;;;;;;;4989230;28;20065;-55
2023/05/06 09:41:20;;;;;;;1.42;1.30;;;26.80;96.10;;;;;;4988952;28;20092;-55
2023/05/06 09:43:48;;;;;;;1.58;1.40;;;26.50;95.50;;;;;;4989658;28;20073;-55
2023/05/06 09:46:16;;;;;;;2.38;1.52;;;26.70;95.60;;;;;;4988637;28;20501;-55
2023/05/06 09:48:43;;;;;;;1.85;1.17;;;26.30;95.20;;;;;;4973386;28;20042;-53
2023/05/06 09:51:10;;;;;;;1.50;1.25;;;26.80;95.30;;;;;;4989795;28;20568;-54
2023/05/06 09:53:36;;;;;;;2.72;1.30;;;26.80;94.40;;;;;;4957959;28;20057;-55
2023/05/06 09:56:05;;;;;;;1.73;1.33;;;;;;;;;;5008509;28;20038;-55
2023/05/06 09:58:32;;;;;;;2.15;1.50;;;27.30;99.90;;;;;;5008574;28;20030;-56
2023/05/06 10:00:58;;;;;;;1.33;0.95;;;;;;;;;;5027950;28;20037;-55
2023/05/06 10:03:25;;;;;;;1.45;1.27;;;28.10;94.30;;;;;;5051619;28;20155;-55
2023/05/06 10:05:53;;;;;;;1.63;1.40;;;27.90;94.10;;;;;;5030586;28;20029;-55
2023/05/06 10:08:21;;;;;;;1.38;1.27;;;28.30;94.60;;;;;;5042160;28;20386;-53
2023/05/06 10:10:48;;;;;;;2.00;1.52;;;27.60;94.10;;;;;;5028965;28;20046;-53
2023/05/06 10:13:15;;;;;;;1.23;1.05;;;27.90;94.20;;;;;;5029731;28;20392;-53
2023/05/06 10:15:46;;;;;;;2.22;1.45;;;28.30;94.30;;;;;;5029502;28;20042;-53
2023/05/06 10:18:14;;;;;;;1.90;1.63;;;28.10;93.30;;;;;;5030243;28;20037;-53
2023/05/06 10:20:41;;;;;;;2.05;1.58;;;28.00;93.10;;;;;;5030757;28;20040;-55
2023/05/06 10:23:44;;;;;;;2.75;1.50;;;27.90;93.60;;;;;;5028518;28;20369;-56
2023/05/06 10:26:11;;;;;;;1.63;1.17;;;27.80;93.60;;;;;;4961463;28;20122;-56
2023/05/06 10:28:41;;;;;;;2.00;1.52;;;28.30;93.70;;;;;;4970722;28;20046;-56
2023/05/06 10:31:11;;;;;;;4.05;1.67;;;;;;;;;;4927055;28;20055;-55
2023/05/06 10:33:43;;;;;;;1.75;1.65;;;28.90;93.00;;;;;;4974880;28;20466;-56
2023/05/06 10:36:38;;;;;;;;;;;28.80;94.00;;;;;;4979977;28;20027;-55
2023/05/06 10:39:06;;;;;;;2.05;1.75;;;28.80;92.80;;;;;;4897714;29;20422;-53
2023/05/06 10:41:35;;;;;;;1.90;1.42;;;28.20;93.20;;;;;;4894897;29;20044;-54
2023/05/06 10:44:01;;;;;;;1.27;1.17;;;28.30;92.60;;;;;;4901826;29;20496;-54
2023/05/06 10:46:28;;;;;;;1.15;0.93;;;28.60;92.30;;;;;;4902303;29;20044;-54
2023/05/06 10:49:03;;;;;;;1.58;1.00;;;28.20;91.90;;;;;;4898725;29;20151;-54
2023/05/06 10:51:30;;;;;;;1.55;1.27;;;28.40;91.90;;;;;;4904207;29;20040;-54
2023/05/06 10:54:05;;;;;;;1.10;1.00;;;28.00;92.00;;;;;;4906955;29;20071;-54
2023/05/06 10:56:34;;;;;;;1.95;1.50;;;27.60;91.40;;;;;;4901893;29;20048;-54
2023/05/06 10:59:06;;;;;;;1.50;1.40;;;27.90;92.10;;;;;;4908593;29;20036;-54
2023/05/06 11:01:35;;;;;;;1.85;1.35;;;28.10;92.60;;;;;;4957181;28;20041;-53
2023/05/06 11:04:05;;;;;;;1.95;1.63;;;;;;;;;;4958066;28;20150;-54
2023/05/06 11:06:50;;;;;;;1.52;1.23;;;;;;;;;;4964948;28;20027;-54
2023/05/06 11:09:18;;;;;;;1.95;1.50;;;;;;;;;;4954367;28;20055;-55
2023/05/06 11:12:01;;;;;;;2.70;1.52;;;;;;;;;;4955405;28;20042;-55
2023/05/06 11:14:28;;;;;;;1.90;1.58;;;;;;;;;;4957809;28;20046;-54
2023/05/06 11:16:58;;;;;;;1.58;1.33;;;;;;;;;;5033343;28;20025;-54
2023/05/06 11:19:26;;;;;;;1.50;1.40;;;28.30;90.10;;;;;;5033740;28;20361;-54
2023/05/06 11:21:54;;;;;;;1.33;1.20;;;28.20;90.60;;;;;;5033577;28;20025;-54
2023/05/06 11:24:26;;;;;;;1.60;1.05;;;28.00;91.00;;;;;;5033418;28;20025;-55
2023/05/06 11:26:52;;;;;;;1.85;1.25;;;28.40;90.80;;;;;;5034129;28;20053;-55
2023/05/06 11:29:18;;;;;;;1.85;1.70;;;28.80;91.00;;;;;;5032913;28;20025;-54
2023/05/06 11:31:45;;;;;;;1.95;1.50;;;28.90;91.00;;;;;;5050141;28;20067;-54
2023/05/06 11:34:17;;;;;;;1.83;1.17;;;28.80;89.90;;;;;;5033304;28;20056;-54
2023/05/06 11:36:49;;;;;;;1.75;1.30;;;28.90;90.50;;;;;;5032791;28;20030;-54
2023/05/06 11:39:15;;;;;;;3.42;1.33;;;29.10;89.30;;;;;;5056891;28;20111;-54
2023/05/06 11:41:42;;;;;;;1.35;1.00;;;;;;;;;;5045091;28;20038;-53
2023/05/06 11:44:08;;;;;;;1.30;1.17;;;29.40;87.30;;;;;;5033703;28;20021;-55
2023/05/06 11:46:35;;;;;;;1.45;1.10;;;;;;;;;;5032908;28;20693;-54
2023/05/06 11:49:01;;;;;;;1.30;1.08;;;28.90;88.20;;;;;;5032888;28;20037;-53
2023/05/06 11:51:27;;;;;;;1.17;1.08;;;29.40;90.10;;;;;;5032430;28;20037;-53
2023/05/06 11:54:10;;;;;;;1.25;0.93;;;29.90;89.80;;;;;;5032701;28;20042;-54
2023/05/06 11:56:47;;;;;;;1.35;1.10;;;28.80;87.90;;;;;;5031065;28;20124;-52
2023/05/06 11:59:13;;;;;;;1.13;1.08;;;28.20;88.40;;;;;;5025803;28;20398;-55
2023/05/06 12:01:42;;;;;;;2.22;1.30;;;28.40;88.10;;;;;;5032124;28;20061;-51
2023/05/06 12:04:10;;;;;;;2.63;1.52;;;28.80;88.30;;;;;;5012417;28;20041;-51
2023/05/06 12:06:36;;;;;;;1.20;1.10;;;29.20;88.10;;;;;;5033405;28;20427;-51
2023/05/06 12:09:08;;;;;;;1.50;1.40;;;29.60;88.70;;;;;;5034009;28;20084;-50
2023/05/06 12:11:35;;;;;;;1.63;1.15;;;29.80;88.50;;;;;;5033718;28;20397;-50
2023/05/06 12:14:07;;;;;;;1.33;1.23;;;29.70;88.30;;;;;;5033604;28;20044;-51
2023/05/06 12:16:34;;;;;;;1.60;1.05;;;29.20;88.00;;;;;;5032960;28;20029;-51
2023/05/06 12:19:01;;;;;;;1.33;1.10;;;28.70;86.70;;;;;;5015108;28;20037;-51
2023/05/06 12:21:28;;;;;;;1.38;0.90;;;28.60;85.80;;;;;;5032571;28;20021;-51
2023/05/06 12:23:58;;;;;;;1.42;1.08;;;28.70;88.00;;;;;;5032397;28;20083;-51
2023/05/06 12:26:26;;;;;;;1.03;1.00;;;28.80;88.60;;;;;;5025346;28;20037;-51
2023/05/06 12:29:10;;;;;;;1.45;1.17;;;;;;;;;;5031561;28;20283;-51
2023/05/06 12:31:36;;;;;;;1.60;1.42;;;29.50;86.20;;;;;;5026804;28;20049;-50
2023/05/06 12:34:03;;;;;;;1.10;1.00;;;30.10;89.80;;;;;;5032146;28;20033;-51
2023/05/06 12:36:29;;;;;;;1.05;1.00;;;29.70;85.50;;;;;;5028810;28;20032;-50
2023/05/06 12:38:57;;;;;;;1.75;1.20;;;30.10;87.40;;;;;;5019745;28;20057;-50
2023/05/06 12:41:34;;;;;;;1.55;1.40;;;29.80;84.40;;;;;;5027461;28;20022;-52
2023/05/06 12:44:00;;;;;;;1.15;0.98;;;29.70;85.00;;;;;;5032902;28;20021;-51
2023/05/06 12:46:26;;;;;;;1.10;1.00;;;;;;;;;;5033642;28;20052;-51
2023/05/06 12:48:56;;;;;;;1.23;0.90;;;;;;;;;;5032752;28;20050;-50
2023/05/06 12:51:23;;;;;;;1.00;0.90;;;;;;;;;;5033049;28;20045;-52
2023/05/06 12:53:50;;;;;;;1.08;0.93;;;;;;;;;;5032620;28;20450;-51
2023/05/06 12:56:15;;;;;;;1.35;1.15;;;29.20;83.00;;;;;;5030801;28;20362;-51
2023/05/06 12:58:41;;;;;;;1.05;0.90;;;29.10;83.80;;;;;;5031871;28;20117;-51
2023/05/06 13:01:07;;;;;;;1.00;0.93;;;28.50;83.30;;;;;;5024603;28;20043;-50
2023/05/06 13:03:33;;;;;;;1.83;1.08;;;28.90;83.10;;;;;;5032386;28;20515;-51
2023/05/06 13:05:59;;;;;;;1.08;0.85;;;28.90;84.30;;;;;;5029642;28;20038;-51
2023/05/06 13:08:25;;;;;;;1.23;1.13;;;29.00;84.00;;;;;;5025092;28;20048;-50
2023/05/06 13:10:50;;;;;;;2.25;0.82;;;28.80;82.80;;;;;;5032108;28;20056;-52